sensor_id;sensor_type;location;lat;lon;timestamp;temperature;humidity
51801;DHT22;37855;53.204;6.568;2022-09-20T00:01:06;11.00;99.90
51801;DHT22;37855;53.204;6.568;2022-09-20T00:03:33;11.00;99.90
51801;DHT22;37855;53.204;6.568;2022-09-20T00:06:01;10.90;99.90
51801;DHT22;37855;53.204;6.568;2022-09-20T00:08:28;10.90;99.90
51801;DHT22;37855;53.204;6.568;2022-09-20T00:10:59;10.80;99.90
51801;DHT22;37855;53.204;6.568;2022-09-20T00:13:26;10.80;99.90
51801;DHT22;37855;53.204;6.568;2022-09-20T00:15:52;10.80;99.90
51801;DHT22;37855;53.204;6.568;2022-09-20T00:18:17;10.80;99.90
51801;DHT22;37855;53.204;6.568;2022-09-20T00:20:46;10.70;99.90
51801;DHT22;37855;53.204;6.568;2022-09-20T00:23:13;10.70;99.90
51801;DHT22;37855;53.204;6.568;2022-09-20T00:25:38;10.70;99.90
51801;DHT22;37855;53.204;6.568;2022-09-20T00:28:05;10.70;99.90
51801;DHT22;37855;53.204;6.568;2022-09-20T00:30:32;10.70;99.90
51801;DHT22;37855;53.204;6.568;2022-09-20T00:32:58;10.60;99.90
51801;DHT22;37855;53.204;6.568;2022-09-20T00:35:24;10.60;99.90
51801;DHT22;37855;53.204;6.568;2022-09-20T00:37:49;10.60;99.90
51801;DHT22;37855;53.204;6.568;2022-09-20T00:40:18;10.50;99.90
51801;DHT22;37855;53.204;6.568;2022-09-20T00:42:47;10.50;99.90
51801;DHT22;37855;53.204;6.568;2022-09-20T00:45:23;10.40;99.90
51801;DHT22;37855;53.204;6.568;2022-09-20T00:48:05;10.40;99.90
51801;DHT22;37855;53.204;6.568;2022-09-20T00:51:03;10.40;99.90
51801;DHT22;37855;53.204;6.568;2022-09-20T00:53:35;10.40;99.90
51801;DHT22;37855;53.204;6.568;2022-09-20T00:56:07;10.50;99.90
51801;DHT22;37855;53.204;6.568;2022-09-20T00:58:40;10.30;99.90
51801;DHT22;37855;53.204;6.568;2022-09-20T01:01:07;10.30;99.90
51801;DHT22;37855;53.204;6.568;2022-09-20T01:03:35;10.30;99.90
51801;DHT22;37855;53.204;6.568;2022-09-20T01:06:06;10.30;99.90
51801;DHT22;37855;53.204;6.568;2022-09-20T01:08:33;10.30;99.90
51801;DHT22;37855;53.204;6.568;2022-09-20T01:11:00;10.30;99.90
51801;DHT22;37855;53.204;6.568;2022-09-20T01:13:26;10.20;99.90
51801;DHT22;37855;53.204;6.568;2022-09-20T01:15:52;10.20;99.90
51801;DHT22;37855;53.204;6.568;2022-09-20T01:18:19;10.20;99.90
51801;DHT22;37855;53.204;6.568;2022-09-20T01:20:47;10.20;99.90
51801;DHT22;37855;53.204;6.568;2022-09-20T01:28:29;10.20;99.90
51801;DHT22;37855;53.204;6.568;2022-09-20T01:31:22;10.10;99.90
51801;DHT22;37855;53.204;6.568;2022-09-20T01:34:00;10.10;99.90
51801;DHT22;37855;53.204;6.568;2022-09-20T01:39:09;10.10;99.90
51801;DHT22;37855;53.204;6.568;2022-09-20T01:41:47;10.10;99.90
51801;DHT22;37855;53.204;6.568;2022-09-20T01:44:35;10.10;99.90
51801;DHT22;37855;53.204;6.568;2022-09-20T01:47:20;10.10;99.90
51801;DHT22;37855;53.204;6.568;2022-09-20T02:04:03;9.90;99.90
51801;DHT22;37855;53.204;6.568;2022-09-20T02:12:52;9.90;99.90
51801;DHT22;37855;53.204;6.568;2022-09-20T02:18:41;9.70;99.90
51801;DHT22;37855;53.204;6.568;2022-09-20T02:21:23;9.60;99.90
51801;DHT22;37855;53.204;6.568;2022-09-20T02:32:28;9.70;99.90
51801;DHT22;37855;53.204;6.568;2022-09-20T02:35:26;9.80;99.90
51801;DHT22;37855;53.204;6.568;2022-09-20T02:43:49;9.80;99.90
51801;DHT22;37855;53.204;6.568;2022-09-20T02:46:36;9.70;99.90
51801;DHT22;37855;53.204;6.568;2022-09-20T02:51:40;9.70;99.90
51801;DHT22;37855;53.204;6.568;2022-09-20T02:57:25;9.70;99.90
51801;DHT22;37855;53.204;6.568;2022-09-20T03:00:06;9.70;99.90
51801;DHT22;37855;53.204;6.568;2022-09-20T03:02:46;9.70;99.90
51801;DHT22;37855;53.204;6.568;2022-09-20T03:05:37;9.70;99.90
51801;DHT22;37855;53.204;6.568;2022-09-20T03:13:42;9.50;99.90
51801;DHT22;37855;53.204;6.568;2022-09-20T03:16:30;9.50;99.90
51801;DHT22;37855;53.204;6.568;2022-09-20T03:27:53;9.50;99.90
51801;DHT22;37855;53.204;6.568;2022-09-20T03:41:24;9.40;99.90
51801;DHT22;37855;53.204;6.568;2022-09-20T03:46:27;9.40;99.90
51801;DHT22;37855;53.204;6.568;2022-09-20T03:49:18;9.40;99.90
51801;DHT22;37855;53.204;6.568;2022-09-20T03:57:37;9.50;99.90
51801;DHT22;37855;53.204;6.568;2022-09-20T04:03:19;9.50;99.90
51801;DHT22;37855;53.204;6.568;2022-09-20T04:06:29;9.60;99.90
51801;DHT22;37855;53.204;6.568;2022-09-20T04:20:48;9.70;99.90
51801;DHT22;37855;53.204;6.568;2022-09-20T04:23:37;9.70;99.90
51801;DHT22;37855;53.204;6.568;2022-09-20T04:26:04;9.70;99.90
51801;DHT22;37855;53.204;6.568;2022-09-20T04:28:39;9.70;99.90
51801;DHT22;37855;53.204;6.568;2022-09-20T04:32:18;9.70;99.90
51801;DHT22;37855;53.204;6.568;2022-09-20T04:34:24;9.70;99.90
51801;DHT22;37855;53.204;6.568;2022-09-20T04:37:36;9.70;99.90
51801;DHT22;37855;53.204;6.568;2022-09-20T04:53:37;9.80;99.90
51801;DHT22;37855;53.204;6.568;2022-09-20T04:59:06;9.80;99.90
51801;DHT22;37855;53.204;6.568;2022-09-20T05:22:14;10.20;99.90
51801;DHT22;37855;53.204;6.568;2022-09-20T05:30:24;10.30;99.90
51801;DHT22;37855;53.204;6.568;2022-09-20T05:35:39;10.40;99.90
51801;DHT22;37855;53.204;6.568;2022-09-20T05:41:07;10.40;99.90
51801;DHT22;37855;53.204;6.568;2022-09-20T05:52:22;10.50;99.90
51801;DHT22;37855;53.204;6.568;2022-09-20T06:01:00;10.60;99.90
51801;DHT22;37855;53.204;6.568;2022-09-20T06:04:25;10.60;99.90
51801;DHT22;37855;53.204;6.568;2022-09-20T06:10:04;10.70;99.90
51801;DHT22;37855;53.204;6.568;2022-09-20T06:15:16;10.70;99.90
51801;DHT22;37855;53.204;6.568;2022-09-20T06:21:03;10.70;99.90
51801;DHT22;37855;53.204;6.568;2022-09-20T06:23:33;10.80;99.90
51801;DHT22;37855;53.204;6.568;2022-09-20T06:26:02;10.80;99.90
51801;DHT22;37855;53.204;6.568;2022-09-20T06:28:41;10.90;99.90
51801;DHT22;37855;53.204;6.568;2022-09-20T06:31:10;11.00;99.90
51801;DHT22;37855;53.204;6.568;2022-09-20T06:33:46;11.00;99.90
51801;DHT22;37855;53.204;6.568;2022-09-20T06:36:34;11.10;99.90
51801;DHT22;37855;53.204;6.568;2022-09-20T06:39:43;11.10;99.90
51801;DHT22;37855;53.204;6.568;2022-09-20T06:42:29;11.20;99.90
51801;DHT22;37855;53.204;6.568;2022-09-20T06:44:55;11.30;99.90
51801;DHT22;37855;53.204;6.568;2022-09-20T06:47:21;11.30;99.90
51801;DHT22;37855;53.204;6.568;2022-09-20T06:49:51;11.30;99.90
51801;DHT22;37855;53.204;6.568;2022-09-20T06:52:18;11.30;99.90
51801;DHT22;37855;53.204;6.568;2022-09-20T06:54:46;11.30;99.90
51801;DHT22;37855;53.204;6.568;2022-09-20T06:57:18;11.30;99.90
51801;DHT22;37855;53.204;6.568;2022-09-20T06:59:45;11.30;99.90
51801;DHT22;37855;53.204;6.568;2022-09-20T07:02:11;11.30;99.90
51801;DHT22;37855;53.204;6.568;2022-09-20T07:04:36;11.30;99.90
51801;DHT22;37855;53.204;6.568;2022-09-20T07:07:04;11.30;99.90
51801;DHT22;37855;53.204;6.568;2022-09-20T07:09:29;11.30;99.90
51801;DHT22;37855;53.204;6.568;2022-09-20T07:11:56;11.40;99.90
51801;DHT22;37855;53.204;6.568;2022-09-20T07:14:24;11.40;99.90
51801;DHT22;37855;53.204;6.568;2022-09-20T07:16:51;11.40;99.90
51801;DHT22;37855;53.204;6.568;2022-09-20T07:19:19;11.40;99.90
51801;DHT22;37855;53.204;6.568;2022-09-20T07:21:47;11.40;99.90
51801;DHT22;37855;53.204;6.568;2022-09-20T07:24:12;11.50;99.90
51801;DHT22;37855;53.204;6.568;2022-09-20T07:26:56;11.50;99.90
51801;DHT22;37855;53.204;6.568;2022-09-20T07:29:23;11.50;99.90
51801;DHT22;37855;53.204;6.568;2022-09-20T07:31:50;11.70;99.90
51801;DHT22;37855;53.204;6.568;2022-09-20T07:34:16;11.50;99.90
51801;DHT22;37855;53.204;6.568;2022-09-20T07:36:47;11.60;99.90
51801;DHT22;37855;53.204;6.568;2022-09-20T07:39:12;11.60;99.90
51801;DHT22;37855;53.204;6.568;2022-09-20T07:41:38;11.60;99.90
51801;DHT22;37855;53.204;6.568;2022-09-20T07:44:04;11.70;99.90
51801;DHT22;37855;53.204;6.568;2022-09-20T07:46:49;11.80;99.90
51801;DHT22;37855;53.204;6.568;2022-09-20T07:49:15;11.80;99.90
51801;DHT22;37855;53.204;6.568;2022-09-20T07:51:41;11.90;99.90
51801;DHT22;37855;53.204;6.568;2022-09-20T07:54:06;12.00;99.90
51801;DHT22;37855;53.204;6.568;2022-09-20T07:56:32;12.10;99.90
51801;DHT22;37855;53.204;6.568;2022-09-20T07:58:58;12.20;99.90
51801;DHT22;37855;53.204;6.568;2022-09-20T08:01:23;12.30;99.90
51801;DHT22;37855;53.204;6.568;2022-09-20T08:03:49;12.40;99.90
51801;DHT22;37855;53.204;6.568;2022-09-20T08:06:17;12.50;99.90
51801;DHT22;37855;53.204;6.568;2022-09-20T08:08:43;12.60;99.90
51801;DHT22;37855;53.204;6.568;2022-09-20T08:11:14;12.70;99.90
51801;DHT22;37855;53.204;6.568;2022-09-20T08:13:51;12.80;99.90
51801;DHT22;37855;53.204;6.568;2022-09-20T08:16:18;12.90;99.90
51801;DHT22;37855;53.204;6.568;2022-09-20T08:18:50;12.90;99.90
51801;DHT22;37855;53.204;6.568;2022-09-20T08:21:16;12.90;99.90
51801;DHT22;37855;53.204;6.568;2022-09-20T08:23:44;13.00;99.90
51801;DHT22;37855;53.204;6.568;2022-09-20T08:26:13;13.10;99.90
51801;DHT22;37855;53.204;6.568;2022-09-20T08:28:40;13.20;99.90
51801;DHT22;37855;53.204;6.568;2022-09-20T08:31:12;13.20;99.90
51801;DHT22;37855;53.204;6.568;2022-09-20T08:33:38;13.30;99.90
51801;DHT22;37855;53.204;6.568;2022-09-20T08:36:11;13.30;99.90
51801;DHT22;37855;53.204;6.568;2022-09-20T08:38:36;13.40;99.90
51801;DHT22;37855;53.204;6.568;2022-09-20T08:41:13;13.50;99.90
51801;DHT22;37855;53.204;6.568;2022-09-20T08:43:48;13.60;99.40
51801;DHT22;37855;53.204;6.568;2022-09-20T08:46:18;13.70;98.90
51801;DHT22;37855;53.204;6.568;2022-09-20T08:48:45;13.70;98.10
51801;DHT22;37855;53.204;6.568;2022-09-20T08:51:13;13.90;96.00
51801;DHT22;37855;53.204;6.568;2022-09-20T08:53:53;14.00;96.10
51801;DHT22;37855;53.204;6.568;2022-09-20T08:56:19;14.00;93.10
51801;DHT22;37855;53.204;6.568;2022-09-20T08:58:46;14.00;90.10
51801;DHT22;37855;53.204;6.568;2022-09-20T09:01:23;13.90;88.80
51801;DHT22;37855;53.204;6.568;2022-09-20T09:03:50;13.90;88.00
51801;DHT22;37855;53.204;6.568;2022-09-20T09:06:19;13.90;88.20
51801;DHT22;37855;53.204;6.568;2022-09-20T09:08:45;13.90;88.50
51801;DHT22;37855;53.204;6.568;2022-09-20T09:11:15;13.90;88.50
51801;DHT22;37855;53.204;6.568;2022-09-20T09:16:54;14.10;89.10
51801;DHT22;37855;53.204;6.568;2022-09-20T09:19:31;14.30;83.70
51801;DHT22;37855;53.204;6.568;2022-09-20T09:22:03;14.40;84.10
51801;DHT22;37855;53.204;6.568;2022-09-20T09:24:29;14.40;82.90
51801;DHT22;37855;53.204;6.568;2022-09-20T09:27:25;14.40;77.50
51801;DHT22;37855;53.204;6.568;2022-09-20T09:29:53;14.40;74.60
51801;DHT22;37855;53.204;6.568;2022-09-20T09:32:28;14.40;76.40
51801;DHT22;37855;53.204;6.568;2022-09-20T09:34:56;14.50;77.30
51801;DHT22;37855;53.204;6.568;2022-09-20T09:37:58;14.60;79.50
51801;DHT22;37855;53.204;6.568;2022-09-20T09:40:30;14.60;79.20
51801;DHT22;37855;53.204;6.568;2022-09-20T09:43:00;14.70;78.50
51801;DHT22;37855;53.204;6.568;2022-09-20T09:45:33;14.70;78.20
51801;DHT22;37855;53.204;6.568;2022-09-20T09:50:42;14.70;76.70
51801;DHT22;37855;53.204;6.568;2022-09-20T09:53:21;14.70;76.70
51801;DHT22;37855;53.204;6.568;2022-09-20T10:04:32;14.70;73.30
51801;DHT22;37855;53.204;6.568;2022-09-20T10:07:22;14.70;74.30
51801;DHT22;37855;53.204;6.568;2022-09-20T10:15:38;14.90;75.80
51801;DHT22;37855;53.204;6.568;2022-09-20T10:21:31;14.70;76.70
51801;DHT22;37855;53.204;6.568;2022-09-20T10:24:27;14.80;77.60
51801;DHT22;37855;53.204;6.568;2022-09-20T10:29:43;14.80;75.90
51801;DHT22;37855;53.204;6.568;2022-09-20T10:43:52;15.00;77.30
51801;DHT22;37855;53.204;6.568;2022-09-20T10:49:34;15.30;77.00
51801;DHT22;37855;53.204;6.568;2022-09-20T11:00:20;15.50;73.30
51801;DHT22;37855;53.204;6.568;2022-09-20T11:08:15;15.30;71.70
51801;DHT22;37855;53.204;6.568;2022-09-20T11:10:54;15.30;72.80
51801;DHT22;37855;53.204;6.568;2022-09-20T11:16:06;15.20;71.50
51801;DHT22;37855;53.204;6.568;2022-09-20T11:18:39;15.30;72.60
51801;DHT22;37855;53.204;6.568;2022-09-20T11:23:55;15.40;69.70
51801;DHT22;37855;53.204;6.568;2022-09-20T11:26:49;15.50;69.50
51801;DHT22;37855;53.204;6.568;2022-09-20T11:29:36;15.60;68.70
51801;DHT22;37855;53.204;6.568;2022-09-20T11:32:19;15.60;66.80
51801;DHT22;37855;53.204;6.568;2022-09-20T11:37:16;15.60;64.90
51801;DHT22;37855;53.204;6.568;2022-09-20T11:39:55;15.60;63.80
51801;DHT22;37855;53.204;6.568;2022-09-20T11:42:29;15.70;68.70
51801;DHT22;37855;53.204;6.568;2022-09-20T11:44:55;15.90;67.30
51801;DHT22;37855;53.204;6.568;2022-09-20T11:47:34;16.10;66.30
51801;DHT22;37855;53.204;6.568;2022-09-20T11:52:46;16.50;66.80
51801;DHT22;37855;53.204;6.568;2022-09-20T11:55:26;16.50;66.10
51801;DHT22;37855;53.204;6.568;2022-09-20T11:58:07;16.30;63.00
51801;DHT22;37855;53.204;6.568;2022-09-20T12:00:40;16.10;65.90
51801;DHT22;37855;53.204;6.568;2022-09-20T12:06:03;16.00;66.60
51801;DHT22;37855;53.204;6.568;2022-09-20T12:08:36;15.90;67.90
51801;DHT22;37855;53.204;6.568;2022-09-20T12:11:09;15.80;69.90
51801;DHT22;37855;53.204;6.568;2022-09-20T12:13:40;15.60;71.20
51801;DHT22;37855;53.204;6.568;2022-09-20T12:16:12;15.50;70.40
51801;DHT22;37855;53.204;6.568;2022-09-20T12:21:19;15.30;72.60
51801;DHT22;37855;53.204;6.568;2022-09-20T12:28:50;15.10;73.60
51801;DHT22;37855;53.204;6.568;2022-09-20T12:39:28;15.10;73.80
51801;DHT22;37855;53.204;6.568;2022-09-20T12:41:54;15.10;75.10
51801;DHT22;37855;53.204;6.568;2022-09-20T12:55:37;15.60;68.70
51801;DHT22;37855;53.204;6.568;2022-09-20T13:03:31;15.70;68.70
51801;DHT22;37855;53.204;6.568;2022-09-20T13:08:40;15.70;70.90
51801;DHT22;37855;53.204;6.568;2022-09-20T13:11:13;15.80;72.40
51801;DHT22;37855;53.204;6.568;2022-09-20T13:13:49;15.70;70.70
51801;DHT22;37855;53.204;6.568;2022-09-20T13:21:53;15.80;71.00
51801;DHT22;37855;53.204;6.568;2022-09-20T13:24:23;15.90;70.20
51801;DHT22;37855;53.204;6.568;2022-09-20T13:26:51;15.90;72.90
51801;DHT22;37855;53.204;6.568;2022-09-20T13:29:25;15.90;75.00
51801;DHT22;37855;53.204;6.568;2022-09-20T13:31:54;15.80;73.10
51801;DHT22;37855;53.204;6.568;2022-09-20T13:34:22;15.70;73.70
51801;DHT22;37855;53.204;6.568;2022-09-20T13:36:52;15.70;74.80
51801;DHT22;37855;53.204;6.568;2022-09-20T13:39:29;15.70;74.10
51801;DHT22;37855;53.204;6.568;2022-09-20T13:42:00;15.70;74.60
51801;DHT22;37855;53.204;6.568;2022-09-20T13:44:30;15.70;74.70
51801;DHT22;37855;53.204;6.568;2022-09-20T13:46:58;15.80;75.00
51801;DHT22;37855;53.204;6.568;2022-09-20T13:49:30;15.90;75.20
51801;DHT22;37855;53.204;6.568;2022-09-20T13:51:56;15.90;74.50
51801;DHT22;37855;53.204;6.568;2022-09-20T13:54:30;16.00;72.70
51801;DHT22;37855;53.204;6.568;2022-09-20T13:57:12;16.00;69.60
51801;DHT22;37855;53.204;6.568;2022-09-20T13:59:42;15.90;69.00
51801;DHT22;37855;53.204;6.568;2022-09-20T14:02:31;15.90;70.80
51801;DHT22;37855;53.204;6.568;2022-09-20T14:05:04;15.80;69.30
51801;DHT22;37855;53.204;6.568;2022-09-20T14:07:31;15.80;67.40
51801;DHT22;37855;53.204;6.568;2022-09-20T14:09:57;15.70;67.40
51801;DHT22;37855;53.204;6.568;2022-09-20T14:12:25;15.80;68.60
51801;DHT22;37855;53.204;6.568;2022-09-20T14:14:52;15.70;69.70
51801;DHT22;37855;53.204;6.568;2022-09-20T14:17:20;15.70;68.80
51801;DHT22;37855;53.204;6.568;2022-09-20T14:19:50;15.70;69.60
51801;DHT22;37855;53.204;6.568;2022-09-20T14:22:25;15.60;67.80
51801;DHT22;37855;53.204;6.568;2022-09-20T14:27:38;15.70;67.10
51801;DHT22;37855;53.204;6.568;2022-09-20T14:30:05;15.60;68.90
51801;DHT22;37855;53.204;6.568;2022-09-20T14:32:51;15.60;69.10
51801;DHT22;37855;53.204;6.568;2022-09-20T14:35:22;15.50;69.10
51801;DHT22;37855;53.204;6.568;2022-09-20T14:37:56;15.50;70.90
51801;DHT22;37855;53.204;6.568;2022-09-20T14:40:31;15.50;71.20
51801;DHT22;37855;53.204;6.568;2022-09-20T14:43:04;15.50;73.50
51801;DHT22;37855;53.204;6.568;2022-09-20T14:45:35;15.50;79.50
51801;DHT22;37855;53.204;6.568;2022-09-20T14:48:04;15.40;82.90
51801;DHT22;37855;53.204;6.568;2022-09-20T14:50:37;15.40;84.80
51801;DHT22;37855;53.204;6.568;2022-09-20T14:55:36;15.50;87.60
51801;DHT22;37855;53.204;6.568;2022-09-20T14:58:11;15.40;87.30
51801;DHT22;37855;53.204;6.568;2022-09-20T15:00:50;15.40;87.10
51801;DHT22;37855;53.204;6.568;2022-09-20T15:03:24;15.20;84.80
51801;DHT22;37855;53.204;6.568;2022-09-20T15:05:50;15.30;86.70
51801;DHT22;37855;53.204;6.568;2022-09-20T15:08:16;15.20;85.40
51801;DHT22;37855;53.204;6.568;2022-09-20T15:10:44;15.20;83.90
51801;DHT22;37855;53.204;6.568;2022-09-20T15:13:10;15.10;84.10
51801;DHT22;37855;53.204;6.568;2022-09-20T15:15:36;15.00;83.60
51801;DHT22;37855;53.204;6.568;2022-09-20T15:18:03;15.10;82.80
51801;DHT22;37855;53.204;6.568;2022-09-20T15:20:29;15.10;81.90
51801;DHT22;37855;53.204;6.568;2022-09-20T15:22:55;15.00;82.50
51801;DHT22;37855;53.204;6.568;2022-09-20T15:25:22;15.00;80.30
51801;DHT22;37855;53.204;6.568;2022-09-20T15:27:49;14.90;79.20
51801;DHT22;37855;53.204;6.568;2022-09-20T15:30:18;15.00;78.40
51801;DHT22;37855;53.204;6.568;2022-09-20T15:32:45;14.90;77.00
51801;DHT22;37855;53.204;6.568;2022-09-20T15:35:12;14.90;76.20
51801;DHT22;37855;53.204;6.568;2022-09-20T15:37:39;14.90;77.50
51801;DHT22;37855;53.204;6.568;2022-09-20T15:40:06;14.90;77.10
51801;DHT22;37855;53.204;6.568;2022-09-20T15:42:33;14.90;78.30
51801;DHT22;37855;53.204;6.568;2022-09-20T15:45:04;14.90;78.00
51801;DHT22;37855;53.204;6.568;2022-09-20T15:47:32;14.90;78.50
51801;DHT22;37855;53.204;6.568;2022-09-20T15:49:58;14.90;78.90
51801;DHT22;37855;53.204;6.568;2022-09-20T15:52:24;14.90;78.70
51801;DHT22;37855;53.204;6.568;2022-09-20T15:54:52;14.80;79.80
51801;DHT22;37855;53.204;6.568;2022-09-20T15:57:18;14.90;80.50
51801;DHT22;37855;53.204;6.568;2022-09-20T15:59:45;14.90;80.50
51801;DHT22;37855;53.204;6.568;2022-09-20T16:02:11;14.70;81.20
51801;DHT22;37855;53.204;6.568;2022-09-20T16:04:36;14.70;82.70
51801;DHT22;37855;53.204;6.568;2022-09-20T16:07:02;14.80;83.60
51801;DHT22;37855;53.204;6.568;2022-09-20T16:09:31;14.60;83.90
51801;DHT22;37855;53.204;6.568;2022-09-20T16:12:01;14.60;83.80
51801;DHT22;37855;53.204;6.568;2022-09-20T16:14:29;14.60;84.80
51801;DHT22;37855;53.204;6.568;2022-09-20T16:16:57;14.60;84.90
51801;DHT22;37855;53.204;6.568;2022-09-20T16:19:23;14.60;85.40
51801;DHT22;37855;53.204;6.568;2022-09-20T16:21:53;14.50;85.20
51801;DHT22;37855;53.204;6.568;2022-09-20T16:24:23;14.50;85.10
51801;DHT22;37855;53.204;6.568;2022-09-20T16:26:50;14.50;85.40
51801;DHT22;37855;53.204;6.568;2022-09-20T16:29:16;14.50;85.90
51801;DHT22;37855;53.204;6.568;2022-09-20T16:31:48;14.50;86.00
51801;DHT22;37855;53.204;6.568;2022-09-20T16:37:04;14.50;88.60
51801;DHT22;37855;53.204;6.568;2022-09-20T16:39:33;14.50;88.70
51801;DHT22;37855;53.204;6.568;2022-09-20T16:42:04;14.50;89.70
51801;DHT22;37855;53.204;6.568;2022-09-20T16:44:35;14.50;90.20
51801;DHT22;37855;53.204;6.568;2022-09-20T16:47:06;14.50;91.00
51801;DHT22;37855;53.204;6.568;2022-09-20T16:49:36;14.50;91.00
51801;DHT22;37855;53.204;6.568;2022-09-20T16:52:07;14.50;91.30
51801;DHT22;37855;53.204;6.568;2022-09-20T16:54:34;14.50;91.80
51801;DHT22;37855;53.204;6.568;2022-09-20T16:57:00;14.50;91.80
51801;DHT22;37855;53.204;6.568;2022-09-20T16:59:26;14.50;91.90
51801;DHT22;37855;53.204;6.568;2022-09-20T17:01:51;14.50;92.30
51801;DHT22;37855;53.204;6.568;2022-09-20T17:04:17;14.40;92.30
51801;DHT22;37855;53.204;6.568;2022-09-20T17:06:45;14.40;92.30
51801;DHT22;37855;53.204;6.568;2022-09-20T17:09:12;14.40;92.80
51801;DHT22;37855;53.204;6.568;2022-09-20T17:11:43;14.30;92.60
51801;DHT22;37855;53.204;6.568;2022-09-20T17:14:11;14.30;92.70
51801;DHT22;37855;53.204;6.568;2022-09-20T17:16:38;14.30;92.90
51801;DHT22;37855;53.204;6.568;2022-09-20T17:19:06;14.30;93.20
51801;DHT22;37855;53.204;6.568;2022-09-20T17:21:34;14.30;93.30
51801;DHT22;37855;53.204;6.568;2022-09-20T17:24:01;14.30;93.40
51801;DHT22;37855;53.204;6.568;2022-09-20T17:26:32;14.30;93.20
51801;DHT22;37855;53.204;6.568;2022-09-20T17:28:59;14.30;93.40
51801;DHT22;37855;53.204;6.568;2022-09-20T17:31:28;14.20;93.60
51801;DHT22;37855;53.204;6.568;2022-09-20T17:33:57;14.20;93.80
51801;DHT22;37855;53.204;6.568;2022-09-20T17:36:32;14.20;94.00
51801;DHT22;37855;53.204;6.568;2022-09-20T17:39:00;14.20;94.30
51801;DHT22;37855;53.204;6.568;2022-09-20T17:41:27;14.20;94.50
51801;DHT22;37855;53.204;6.568;2022-09-20T17:43:54;14.10;95.10
51801;DHT22;37855;53.204;6.568;2022-09-20T17:46:26;14.10;95.50
51801;DHT22;37855;53.204;6.568;2022-09-20T17:48:55;14.10;95.60
51801;DHT22;37855;53.204;6.568;2022-09-20T17:51:24;14.00;95.60
51801;DHT22;37855;53.204;6.568;2022-09-20T17:53:50;14.00;95.90
51801;DHT22;37855;53.204;6.568;2022-09-20T17:56:20;14.00;96.00
51801;DHT22;37855;53.204;6.568;2022-09-20T17:58:48;14.00;96.30
51801;DHT22;37855;53.204;6.568;2022-09-20T18:01:16;14.00;96.60
51801;DHT22;37855;53.204;6.568;2022-09-20T18:03:45;14.00;96.80
51801;DHT22;37855;53.204;6.568;2022-09-20T18:06:19;13.90;97.20
51801;DHT22;37855;53.204;6.568;2022-09-20T18:08:47;13.90;97.30
51801;DHT22;37855;53.204;6.568;2022-09-20T18:11:15;13.90;97.30
51801;DHT22;37855;53.204;6.568;2022-09-20T18:13:41;13.90;97.50
51801;DHT22;37855;53.204;6.568;2022-09-20T18:16:11;13.80;97.80
51801;DHT22;37855;53.204;6.568;2022-09-20T18:18:38;13.80;98.20
51801;DHT22;37855;53.204;6.568;2022-09-20T18:21:18;13.80;98.40
51801;DHT22;37855;53.204;6.568;2022-09-20T18:23:45;13.80;98.80
51801;DHT22;37855;53.204;6.568;2022-09-20T18:26:19;13.80;98.90
51801;DHT22;37855;53.204;6.568;2022-09-20T18:29:00;13.80;99.00
51801;DHT22;37855;53.204;6.568;2022-09-20T18:31:27;13.80;99.20
51801;DHT22;37855;53.204;6.568;2022-09-20T18:33:57;13.70;99.50
51801;DHT22;37855;53.204;6.568;2022-09-20T18:36:25;13.70;99.80
51801;DHT22;37855;53.204;6.568;2022-09-20T18:38:52;13.70;99.90
51801;DHT22;37855;53.204;6.568;2022-09-20T18:41:20;13.70;99.90
51801;DHT22;37855;53.204;6.568;2022-09-20T18:43:48;13.70;99.90
51801;DHT22;37855;53.204;6.568;2022-09-20T18:46:13;13.70;99.90
51801;DHT22;37855;53.204;6.568;2022-09-20T18:48:39;13.70;99.90
51801;DHT22;37855;53.204;6.568;2022-09-20T18:51:06;13.60;99.90
51801;DHT22;37855;53.204;6.568;2022-09-20T18:53:35;13.60;99.90
51801;DHT22;37855;53.204;6.568;2022-09-20T18:58:31;13.60;99.90
51801;DHT22;37855;53.204;6.568;2022-09-20T19:04:00;13.50;99.90
51801;DHT22;37855;53.204;6.568;2022-09-20T19:06:33;13.50;99.90
51801;DHT22;37855;53.204;6.568;2022-09-20T19:09:09;13.50;99.90
51801;DHT22;37855;53.204;6.568;2022-09-20T19:11:42;13.40;99.90
51801;DHT22;37855;53.204;6.568;2022-09-20T19:14:23;13.40;99.90
51801;DHT22;37855;53.204;6.568;2022-09-20T19:16:59;13.30;99.90
51801;DHT22;37855;53.204;6.568;2022-09-20T19:19:52;13.30;99.90
51801;DHT22;37855;53.204;6.568;2022-09-20T19:27:49;13.20;99.90
51801;DHT22;37855;53.204;6.568;2022-09-20T19:30:17;13.20;99.90
51801;DHT22;37855;53.204;6.568;2022-09-20T19:32:43;13.20;99.90
51801;DHT22;37855;53.204;6.568;2022-09-20T19:35:21;13.10;99.90
51801;DHT22;37855;53.204;6.568;2022-09-20T19:48:39;13.00;99.90
51801;DHT22;37855;53.204;6.568;2022-09-20T19:51:10;13.00;99.90
51801;DHT22;37855;53.204;6.568;2022-09-20T19:53:36;13.10;99.90
51801;DHT22;37855;53.204;6.568;2022-09-20T19:56:12;13.00;99.90
51801;DHT22;37855;53.204;6.568;2022-09-20T19:58:40;13.00;99.90
51801;DHT22;37855;53.204;6.568;2022-09-20T20:01:08;13.00;99.90
51801;DHT22;37855;53.204;6.568;2022-09-20T20:03:34;13.00;99.90
51801;DHT22;37855;53.204;6.568;2022-09-20T20:14:47;12.80;99.90
51801;DHT22;37855;53.204;6.568;2022-09-20T20:25:01;12.70;99.90
51801;DHT22;37855;53.204;6.568;2022-09-20T20:27:27;12.70;99.90
51801;DHT22;37855;53.204;6.568;2022-09-20T20:29:53;12.60;99.90
51801;DHT22;37855;53.204;6.568;2022-09-20T20:32:20;12.60;99.90
51801;DHT22;37855;53.204;6.568;2022-09-20T20:34:45;12.60;99.90
51801;DHT22;37855;53.204;6.568;2022-09-20T20:37:11;12.50;99.90
51801;DHT22;37855;53.204;6.568;2022-09-20T20:39:37;12.50;99.90
51801;DHT22;37855;53.204;6.568;2022-09-20T20:42:04;12.50;99.90
51801;DHT22;37855;53.204;6.568;2022-09-20T20:44:33;12.50;99.90
51801;DHT22;37855;53.204;6.568;2022-09-20T20:47:03;12.50;99.90
51801;DHT22;37855;53.204;6.568;2022-09-20T20:49:31;12.40;99.90
51801;DHT22;37855;53.204;6.568;2022-09-20T20:52:00;12.40;99.90
51801;DHT22;37855;53.204;6.568;2022-09-20T20:54:29;12.40;99.90
51801;DHT22;37855;53.204;6.568;2022-09-20T20:56:54;12.40;99.90
51801;DHT22;37855;53.204;6.568;2022-09-20T20:59:20;12.40;99.90
51801;DHT22;37855;53.204;6.568;2022-09-20T21:01:46;12.30;99.90
51801;DHT22;37855;53.204;6.568;2022-09-20T21:04:12;12.30;99.90
51801;DHT22;37855;53.204;6.568;2022-09-20T21:06:40;12.30;99.90
51801;DHT22;37855;53.204;6.568;2022-09-20T21:09:07;12.20;99.90
51801;DHT22;37855;53.204;6.568;2022-09-20T21:11:35;12.20;99.90
51801;DHT22;37855;53.204;6.568;2022-09-20T21:14:02;12.20;99.90
51801;DHT22;37855;53.204;6.568;2022-09-20T21:16:40;12.20;99.90
51801;DHT22;37855;53.204;6.568;2022-09-20T21:19:11;12.10;99.90
51801;DHT22;37855;53.204;6.568;2022-09-20T21:21:42;12.10;99.90
51801;DHT22;37855;53.204;6.568;2022-09-20T21:24:10;12.00;99.90
51801;DHT22;37855;53.204;6.568;2022-09-20T21:26:37;12.00;99.90